createdAt,value
2017-05-07T08:00:29.945Z,18.98
2017-05-07T08:47:58.576Z,15.03
2017-05-07T08:48:24.091Z,15.02
2017-05-07T08:48:49.601Z,14.94
2017-05-07T08:49:15.110Z,14.97
2017-05-07T08:49:40.596Z,14.86
2017-05-07T08:50:06.071Z,14.92
2017-05-07T08:50:31.534Z,14.96
2017-05-07T08:50:56.974Z,15.02
2017-05-07T08:51:22.470Z,14.99
2017-05-07T08:51:47.928Z,15
2017-05-07T08:52:13.374Z,14.97
2017-05-07T08:52:38.854Z,14.96
2017-05-07T08:53:04.327Z,15
2017-05-07T08:53:29.772Z,14.94
2017-05-07T08:53:55.235Z,15.06
2017-05-07T08:54:20.712Z,15.09
2017-05-07T08:54:46.207Z,15.04
2017-05-07T08:55:11.694Z,15
2017-05-07T08:55:37.166Z,15.07
2017-05-07T08:56:02.661Z,15.07
2017-05-07T08:56:28.133Z,15.07
2017-05-07T08:56:53.606Z,15.09
2017-05-07T08:57:19.091Z,15.11
2017-05-07T08:57:44.565Z,15.03
2017-05-07T08:58:10.068Z,15.18
2017-05-07T08:58:35.545Z,15.15
2017-05-07T08:59:01.029Z,15.21
2017-05-07T08:59:26.493Z,15.21
2017-05-07T08:59:51.978Z,15.25
2017-05-07T09:00:17.484Z,15.19
2017-05-07T09:00:42.970Z,15.19
2017-05-07T09:01:08.431Z,15.35
2017-05-07T09:01:33.919Z,15.29
2017-05-07T09:01:59.408Z,15.35
2017-05-07T09:02:24.889Z,15.39
2017-05-07T09:02:50.386Z,15.29
2017-05-07T09:03:15.900Z,15.39
2017-05-07T09:03:41.381Z,15.36
2017-05-07T09:04:06.881Z,15.4
2017-05-07T09:04:32.354Z,15.4
2017-05-07T09:04:57.843Z,15.37
2017-05-07T09:05:23.320Z,15.42
2017-05-07T09:05:48.813Z,15.46
2017-05-07T09:06:14.282Z,15.47
2017-05-07T09:06:39.771Z,15.4
2017-05-07T09:07:05.243Z,15.43
2017-05-07T09:07:30.721Z,15.52
2017-05-07T09:07:56.182Z,15.43
2017-05-07T09:08:21.667Z,15.54
2017-05-07T09:08:47.150Z,15.54
2017-05-07T09:09:12.636Z,15.49
2017-05-07T09:09:38.162Z,15.57
2017-05-07T09:10:03.619Z,15.52
2017-05-07T09:10:29.107Z,15.49
2017-05-07T09:10:54.579Z,15.54
2017-05-07T09:11:20.051Z,15.7
2017-05-07T09:11:45.535Z,15.51
2017-05-07T09:12:11.044Z,15.61
2017-05-07T09:12:55.809Z,15.58
2017-05-07T09:13:21.313Z,15.61
2017-05-07T09:13:46.790Z,15.55
2017-05-07T09:14:12.261Z,15.61
2017-05-07T09:14:37.758Z,15.58
2017-05-07T09:15:03.231Z,15.65
2017-05-07T09:15:28.706Z,15.62
2017-05-07T09:15:54.224Z,15.62
2017-05-07T09:16:19.698Z,15.59
2017-05-07T09:16:45.222Z,15.62
2017-05-07T09:17:10.714Z,15.62
2017-05-07T09:17:36.163Z,15.58
2017-05-07T09:18:01.635Z,15.59
2017-05-07T09:18:27.079Z,15.62
2017-05-07T09:18:52.556Z,15.58
2017-05-07T09:19:18.046Z,15.59
2017-05-07T09:19:43.548Z,15.51
2017-05-07T09:20:09.008Z,15.49
2017-05-07T09:20:34.467Z,15.49
2017-05-07T09:20:59.963Z,15.57
2017-05-07T09:21:25.447Z,15.51
2017-05-07T09:21:50.981Z,15.51
2017-05-07T09:22:16.459Z,15.46
2017-05-07T09:22:41.984Z,15.43
2017-05-07T09:23:07.536Z,15.47
2017-05-07T09:23:32.999Z,15.42
2017-05-07T09:23:58.502Z,15.35
2017-05-07T09:24:24.070Z,15.39
2017-05-07T09:24:49.545Z,15.4
2017-05-07T09:25:15.052Z,15.37
2017-05-07T09:25:40.501Z,15.35
2017-05-07T09:26:06.012Z,15.39
2017-05-07T09:26:31.525Z,15.46
2017-05-07T09:26:57.031Z,15.36
2017-05-07T09:27:22.500Z,15.46
2017-05-07T09:27:47.986Z,15.44
2017-05-07T09:28:13.496Z,15.42
2017-05-07T09:28:38.941Z,15.46
2017-05-07T09:29:04.436Z,15.49
2017-05-07T09:29:29.887Z,15.52
2017-05-07T09:29:55.329Z,15.49
2017-05-07T09:30:20.792Z,15.54
2017-05-07T09:30:46.270Z,15.51
2017-05-07T09:31:11.779Z,15.52
2017-05-07T09:31:37.260Z,15.52
2017-05-07T09:32:02.730Z,15.62
2017-05-07T09:32:28.206Z,15.59
2017-05-07T09:32:53.710Z,15.61
2017-05-07T09:33:19.145Z,15.51
2017-05-07T09:33:44.718Z,15.57
2017-05-07T09:34:10.168Z,15.62
2017-05-07T09:34:35.624Z,15.61
2017-05-07T09:35:01.141Z,15.58
2017-05-07T09:35:26.642Z,15.75
2017-05-07T09:35:52.072Z,15.68
2017-05-07T09:36:17.531Z,15.68
2017-05-07T09:36:43.031Z,15.73
2017-05-07T09:37:08.527Z,15.68
2017-05-07T09:37:33.962Z,15.76
2017-05-07T09:37:59.485Z,15.76
2017-05-07T09:38:24.994Z,15.86
2017-05-07T09:38:50.426Z,15.91
2017-05-07T09:39:15.920Z,15.94
2017-05-07T09:39:41.412Z,15.98
2017-05-07T09:40:06.907Z,15.97
2017-05-07T09:40:32.337Z,16.05
2017-05-07T09:40:57.809Z,16.12
2017-05-07T09:41:23.296Z,16.17
2017-05-07T09:41:48.751Z,16.28
2017-05-07T09:42:14.212Z,16.28
2017-05-07T09:42:39.682Z,16.26
2017-05-07T09:43:05.164Z,16.28
2017-05-07T09:43:30.644Z,16.33
2017-05-07T09:43:56.104Z,16.38
2017-05-07T09:44:21.623Z,16.41
2017-05-07T09:44:47.113Z,16.42
2017-05-07T09:45:12.561Z,16.47
2017-05-07T09:45:38.037Z,16.39
2017-05-07T09:46:03.510Z,16.46
2017-05-07T09:46:29.003Z,16.49
2017-05-07T09:46:54.504Z,16.49
2017-05-07T09:47:19.962Z,16.46
2017-05-07T09:47:45.439Z,16.57
2017-05-07T09:48:10.937Z,16.5
2017-05-07T09:48:36.582Z,16.53
2017-05-07T09:49:01.999Z,16.6
2017-05-07T09:49:27.514Z,16.68
2017-05-07T09:49:52.987Z,16.71
2017-05-07T09:50:18.478Z,16.66
2017-05-07T09:50:43.957Z,16.69
2017-05-07T09:51:09.421Z,16.75
2017-05-07T09:51:34.886Z,16.84
2017-05-07T09:52:00.409Z,16.84
2017-05-07T09:52:25.881Z,16.86
2017-05-07T09:52:51.358Z,16.81
2017-05-07T09:53:16.835Z,16.83
2017-05-07T09:53:42.304Z,16.91
2017-05-07T09:54:07.756Z,16.93
2017-05-07T09:54:33.250Z,16.87
2017-05-07T09:54:58.789Z,16.87
2017-05-07T09:55:24.271Z,16.94
2017-05-07T09:55:49.778Z,16.93
2017-05-07T09:56:15.248Z,16.93
2017-05-07T09:56:40.778Z,16.87
2017-05-07T09:57:06.233Z,16.91
2017-05-07T09:57:31.714Z,16.91
2017-05-07T09:57:57.178Z,17.02
2017-05-07T09:58:22.663Z,16.96
2017-05-07T09:58:48.178Z,17.06
2017-05-07T09:59:13.618Z,17.06
2017-05-07T09:59:39.100Z,17.14
2017-05-07T10:00:04.531Z,17.11
2017-05-07T10:00:29.993Z,17.08
2017-05-07T10:00:55.464Z,17.05
2017-05-07T10:01:20.957Z,17.08
2017-05-07T10:01:46.412Z,17.09
2017-05-07T10:02:11.873Z,17.09
2017-05-07T10:02:37.780Z,17.11
2017-05-07T10:03:03.304Z,17.05
2017-05-07T10:03:28.747Z,17.11
2017-05-07T10:03:54.200Z,17.06
2017-05-07T10:04:19.702Z,17.12
2017-05-07T10:04:45.226Z,17.06
2017-05-07T10:05:10.724Z,17.04
2017-05-07T10:05:36.169Z,17.12
2017-05-07T10:06:01.628Z,17.09
2017-05-07T10:06:27.078Z,17.15
2017-05-07T10:06:52.547Z,17.11
2017-05-07T10:07:18.060Z,17.12
2017-05-07T10:07:43.469Z,17.15
2017-05-07T10:08:08.953Z,17.2
2017-05-07T10:08:34.469Z,17.24
2017-05-07T10:08:59.922Z,17.24
2017-05-07T10:09:25.410Z,17.29
2017-05-07T10:09:50.891Z,17.38
2017-05-07T10:10:16.377Z,17.33
2017-05-07T10:10:41.872Z,17.42
2017-05-07T10:11:07.342Z,17.42
2017-05-07T10:11:32.860Z,17.52
2017-05-07T10:11:58.310Z,17.46
2017-05-07T10:12:23.811Z,17.64
2017-05-07T10:12:49.324Z,17.72
2017-05-07T10:13:14.817Z,17.72
2017-05-07T10:13:40.293Z,17.82
2017-05-07T10:14:05.856Z,17.87
2017-05-07T10:14:31.299Z,17.86
2017-05-07T10:14:56.768Z,17.95
2017-05-07T10:15:22.308Z,17.97
2017-05-07T10:15:47.741Z,17.98
2017-05-07T10:16:13.236Z,17.95
2017-05-07T10:16:38.727Z,18.03
2017-05-07T10:17:04.188Z,17.94
2017-05-07T10:17:29.669Z,18.05
2017-05-07T10:17:55.250Z,18.07
2017-05-07T10:18:20.674Z,17.97
2017-05-07T10:18:46.176Z,17.94
2017-05-07T10:19:11.614Z,18.05
2017-05-07T10:19:37.066Z,18.04
2017-05-07T10:20:02.523Z,17.95
2017-05-07T10:20:28.012Z,18
2017-05-07T10:20:53.468Z,18.11
2017-05-07T10:21:18.948Z,18.04
2017-05-07T10:21:44.422Z,18.01
2017-05-07T10:22:09.888Z,18.07
2017-05-07T10:22:35.358Z,17.97
2017-05-07T10:23:00.887Z,18.07
2017-05-07T10:23:26.335Z,18.11
2017-05-07T10:23:51.816Z,18.04
2017-05-07T10:24:17.282Z,18.1
2017-05-07T10:24:42.743Z,18.13
2017-05-07T10:25:08.189Z,18.07
2017-05-07T10:25:33.674Z,18.25
2017-05-07T10:25:59.178Z,18.1
2017-05-07T10:26:24.630Z,18.08
2017-05-07T10:26:50.083Z,18.19
2017-05-07T10:27:15.561Z,18.22
2017-05-07T10:27:41.045Z,18.31
2017-05-07T10:28:06.554Z,18.31
2017-05-07T10:28:31.983Z,18.28
2017-05-07T10:28:57.450Z,18.33
2017-05-07T10:29:22.949Z,18.29
2017-05-07T10:29:48.387Z,18.33
2017-05-07T10:30:13.847Z,18.35
2017-05-07T10:30:39.301Z,18.31
2017-05-07T10:31:04.757Z,18.31
2017-05-07T10:31:30.218Z,18.29
2017-05-07T10:31:55.705Z,18.33
2017-05-07T10:32:21.133Z,18.31
2017-05-07T10:32:46.614Z,18.33
2017-05-07T10:33:12.133Z,18.26
2017-05-07T10:33:37.608Z,18.28
2017-05-07T10:34:03.121Z,18.29
2017-05-07T10:34:28.573Z,18.26
2017-05-07T10:34:54.057Z,18.34
2017-05-07T10:35:19.541Z,18.28
2017-05-07T10:35:45.003Z,18.34
2017-05-07T10:36:10.491Z,18.31
2017-05-07T10:36:35.943Z,18.29
2017-05-07T10:37:01.410Z,18.29
2017-05-07T10:37:26.876Z,18.28
2017-05-07T10:37:52.335Z,18.25
2017-05-07T10:38:17.853Z,18.33
2017-05-07T10:38:43.293Z,18.26
2017-05-07T10:39:08.784Z,18.23
2017-05-07T10:39:34.206Z,18.29
2017-05-07T10:39:59.677Z,18.29
2017-05-07T10:40:25.153Z,18.33
2017-05-07T10:40:50.628Z,18.29
2017-05-07T10:41:16.100Z,18.26
2017-05-07T10:41:41.630Z,18.28
2017-05-07T10:42:07.071Z,18.28
2017-05-07T10:42:32.527Z,18.26
2017-05-07T10:42:57.994Z,18.26
2017-05-07T10:43:23.463Z,18.26
2017-05-07T10:43:48.934Z,18.23
2017-05-07T10:44:14.388Z,18.22
2017-05-07T10:44:39.877Z,18.34
2017-05-07T10:45:05.324Z,18.33
2017-05-07T10:45:30.795Z,18.33
2017-05-07T10:45:56.289Z,18.35
2017-05-07T10:46:21.731Z,18.25
2017-05-07T10:46:47.240Z,18.22
2017-05-07T10:47:12.686Z,18.22
2017-05-07T10:47:38.156Z,18.34
2017-05-07T10:48:03.671Z,18.25
2017-05-07T10:48:29.175Z,18.22
2017-05-07T10:48:54.616Z,18.23
2017-05-07T10:49:20.140Z,18.28
2017-05-07T10:49:45.615Z,18.29
2017-05-07T10:50:11.296Z,18.26
2017-05-07T10:50:36.700Z,18.33
2017-05-07T10:51:02.621Z,18.26
2017-05-07T10:51:28.143Z,18.34
2017-05-07T10:51:53.843Z,18.29
2017-05-07T10:52:19.454Z,18.38
2017-05-07T10:52:44.967Z,18.38
2017-05-07T10:53:10.661Z,18.44
2017-05-07T10:53:36.196Z,18.5
2017-05-07T10:54:01.755Z,18.53
2017-05-07T10:54:27.198Z,18.52
2017-05-07T10:54:52.839Z,18.59
2017-05-07T10:55:18.609Z,18.58
2017-05-07T10:55:44.700Z,18.55
2017-05-07T10:56:10.667Z,18.6
2017-05-07T10:56:36.330Z,18.68
2017-05-07T10:57:01.869Z,18.78
2017-05-07T10:57:27.412Z,18.75
2017-05-07T10:57:53.080Z,18.73
2017-05-07T10:58:18.634Z,18.75
2017-05-07T10:58:44.301Z,18.78
2017-05-07T10:59:09.769Z,18.86
2017-05-07T10:59:35.966Z,18.86
2017-05-07T11:00:01.468Z,18.84
2017-05-07T11:00:27.311Z,18.9
2017-05-07T11:00:52.852Z,18.89
2017-05-07T11:01:18.393Z,18.9
2017-05-07T11:01:43.887Z,18.92
2017-05-07T11:02:09.343Z,18.93
2017-05-07T11:02:35.192Z,18.9
2017-05-07T11:03:00.748Z,18.88
2017-05-07T11:03:26.464Z,18.93
2017-05-07T11:03:51.982Z,18.9
2017-05-07T11:04:17.714Z,18.92
2017-05-07T11:04:43.308Z,18.88
2017-05-07T11:05:08.946Z,18.83
2017-05-07T11:05:34.514Z,18.88
2017-05-07T11:06:00.245Z,18.83
2017-05-07T11:06:26.150Z,18.86
2017-05-07T11:06:51.767Z,18.88
2017-05-07T11:07:17.380Z,18.75
2017-05-07T11:07:42.978Z,18.75
2017-05-07T11:08:08.759Z,18.73
2017-05-07T11:08:34.538Z,18.71
2017-05-07T11:09:00.564Z,18.78
2017-05-07T11:09:26.622Z,18.74
2017-05-07T11:09:52.167Z,18.74
2017-05-07T11:10:17.857Z,18.65
2017-05-07T11:10:43.805Z,18.74
2017-05-07T11:11:09.273Z,18.71
2017-05-07T11:11:34.763Z,18.65
2017-05-07T11:12:00.542Z,18.63
2017-05-07T11:12:26.028Z,18.71
2017-05-07T11:12:51.524Z,18.68
2017-05-07T11:13:17.071Z,18.8
2017-05-07T11:13:42.573Z,18.7
2017-05-07T11:14:08.036Z,18.7
2017-05-07T11:14:33.720Z,18.59
2017-05-07T11:14:59.166Z,18.73
2017-05-07T11:15:24.640Z,18.7
2017-05-07T11:15:50.459Z,18.66
2017-05-07T11:16:16.035Z,18.73
2017-05-07T11:16:41.689Z,18.56
2017-05-07T11:17:07.314Z,18.56
2017-05-07T11:17:32.958Z,18.52
2017-05-07T11:17:58.629Z,18.55
2017-05-07T11:18:24.187Z,18.63
2017-05-07T11:18:51.623Z,18.59
2017-05-07T11:19:22.536Z,18.58
2017-05-07T11:19:48.087Z,18.74
2017-05-07T11:20:13.702Z,18.7
2017-05-07T11:20:39.048Z,18.6
2017-05-07T11:21:04.651Z,18.63
2017-05-07T11:21:30.067Z,18.71
2017-05-07T11:21:55.809Z,18.74
2017-05-07T11:22:21.194Z,18.6
2017-05-07T11:22:46.755Z,18.7
2017-05-07T11:23:12.293Z,18.63
2017-05-07T11:23:37.775Z,18.73
2017-05-07T11:24:03.384Z,18.7
2017-05-07T11:24:29.147Z,18.77
2017-05-07T11:24:54.616Z,18.73
2017-05-07T11:25:20.219Z,18.74
2017-05-07T11:25:45.639Z,18.75
2017-05-07T11:26:11.356Z,18.73
2017-05-07T11:26:36.858Z,18.74
2017-05-07T11:27:02.404Z,18.81
2017-05-07T11:27:27.876Z,18.77
2017-05-07T11:27:53.420Z,18.81
2017-05-07T11:28:18.925Z,18.84
2017-05-07T11:28:44.401Z,18.78
2017-05-07T11:29:10.132Z,18.9
2017-05-07T11:29:35.944Z,18.9
2017-05-07T11:30:01.210Z,18.86
2017-05-07T11:30:26.671Z,18.89
2017-05-07T11:30:52.413Z,18.89
2017-05-07T11:31:18.021Z,18.89
2017-05-07T11:31:43.468Z,18.86
2017-05-07T11:32:09.003Z,18.98
2017-05-07T11:32:34.445Z,18.9
2017-05-07T11:32:59.957Z,19.02
2017-05-07T11:33:25.457Z,19
2017-05-07T11:33:50.931Z,19.04
2017-05-07T11:34:16.380Z,19.04
2017-05-07T11:34:41.846Z,19.09
2017-05-07T11:35:07.307Z,19.08
2017-05-07T11:35:32.773Z,19.07
2017-05-07T11:35:58.285Z,19.11
2017-05-07T11:36:23.712Z,19.11
2017-05-07T11:36:49.201Z,19.15
2017-05-07T11:37:14.695Z,19.09
2017-05-07T11:37:40.144Z,19.16
2017-05-07T11:38:05.645Z,19.21
2017-05-07T11:38:31.064Z,19.21
2017-05-07T11:38:56.547Z,19.24
2017-05-07T11:39:22.018Z,19.22
2017-05-07T11:39:47.486Z,19.21
2017-05-07T11:40:12.974Z,19.26
2017-05-07T11:40:38.391Z,19.21
2017-05-07T11:41:03.864Z,19.33
2017-05-07T11:41:29.349Z,19.26
2017-05-07T11:41:54.869Z,19.3
2017-05-07T11:42:20.332Z,19.31
2017-05-07T11:42:45.836Z,19.29
2017-05-07T11:43:11.319Z,19.24
2017-05-07T11:43:36.860Z,19.18
2017-05-07T11:44:02.304Z,19.29
2017-05-07T11:44:27.786Z,19.33
2017-05-07T11:44:53.256Z,19.24
2017-05-07T11:45:18.750Z,19.24
2017-05-07T11:45:44.196Z,19.24
2017-05-07T11:46:09.702Z,19.22
2017-05-07T11:46:35.217Z,19.29
2017-05-07T11:47:00.688Z,19.34
2017-05-07T11:47:26.197Z,19.31
2017-05-07T11:47:51.637Z,19.29
2017-05-07T11:48:17.072Z,19.29
2017-05-07T11:48:42.588Z,19.24
2017-05-07T11:49:08.019Z,19.21
2017-05-07T11:49:33.505Z,19.24
2017-05-07T11:49:58.998Z,19.22
2017-05-07T11:50:24.511Z,19.24
2017-05-07T11:50:50.008Z,19.22
2017-05-07T11:51:15.502Z,19.3
2017-05-07T11:51:40.989Z,19.21
2017-05-07T11:52:06.491Z,19.22
2017-05-07T11:52:31.916Z,19.21
2017-05-07T11:52:57.406Z,19.26
2017-05-07T11:53:22.905Z,19.24
2017-05-07T11:53:48.374Z,19.11
2017-05-07T11:54:13.818Z,19.26
2017-05-07T11:54:39.294Z,19.15
2017-05-07T11:55:04.760Z,19.26
2017-05-07T11:55:30.243Z,19.19
2017-05-07T11:55:55.712Z,19.19
2017-05-07T11:56:21.178Z,19.24
2017-05-07T11:56:46.647Z,19.24
2017-05-07T11:57:12.157Z,19.27
2017-05-07T11:57:37.619Z,19.24
2017-05-07T11:58:03.075Z,19.27
2017-05-07T11:58:28.566Z,19.22
2017-05-07T11:58:54.037Z,19.26
2017-05-07T11:59:19.505Z,19.31
2017-05-07T11:59:44.971Z,19.29
2017-05-07T12:00:10.474Z,19.29
2017-05-07T12:00:35.927Z,19.22
2017-05-07T12:01:01.442Z,19.39
2017-05-07T12:01:26.905Z,19.26
2017-05-07T12:01:52.399Z,19.4
2017-05-07T12:02:17.899Z,19.41
2017-05-07T12:02:43.345Z,19.3
2017-05-07T12:03:08.817Z,19.37
2017-05-07T12:03:34.292Z,19.37
2017-05-07T12:03:59.797Z,19.41
2017-05-07T12:04:25.257Z,19.36
2017-05-07T12:04:50.746Z,19.44
2017-05-07T12:05:16.207Z,19.39
2017-05-07T12:05:41.709Z,19.49
2017-05-07T12:06:07.195Z,19.44
2017-05-07T12:06:32.687Z,19.49
2017-05-07T12:06:58.252Z,19.48
2017-05-07T12:07:23.716Z,19.44
2017-05-07T12:07:49.161Z,19.45
2017-05-07T12:08:14.633Z,19.45
2017-05-07T12:08:40.121Z,19.51
2017-05-07T12:09:05.586Z,19.45
2017-05-07T12:09:31.070Z,19.39
2017-05-07T12:09:56.545Z,19.4
2017-05-07T12:10:22.046Z,19.39
2017-05-07T12:10:47.601Z,19.31
2017-05-07T12:11:13.172Z,19.26
2017-05-07T12:11:38.652Z,19.27
2017-05-07T12:12:04.162Z,19.18
2017-05-07T12:12:29.601Z,19.24
2017-05-07T12:12:55.111Z,19.22
2017-05-07T12:13:20.579Z,19.24
2017-05-07T12:13:46.072Z,19.21
2017-05-07T12:14:11.568Z,19.12
2017-05-07T12:14:37.009Z,19.12
2017-05-07T12:15:02.494Z,19.12
2017-05-07T12:15:28.010Z,19.12
2017-05-07T12:15:53.459Z,19.11
2017-05-07T12:16:18.918Z,19.08
2017-05-07T12:16:44.396Z,19.12
2017-05-07T12:17:10.030Z,19.11
2017-05-07T12:17:35.400Z,19.04
2017-05-07T12:18:00.816Z,19.04
2017-05-07T12:18:26.272Z,19.04
2017-05-07T12:18:51.758Z,19.04
2017-05-07T12:19:17.239Z,18.93
2017-05-07T12:19:42.719Z,18.9
2017-05-07T12:20:08.205Z,18.93
2017-05-07T12:20:33.724Z,18.84
2017-05-07T12:20:59.181Z,18.95
2017-05-07T12:21:24.697Z,18.83
2017-05-07T12:21:50.176Z,18.9
2017-05-07T12:22:15.597Z,18.9
2017-05-07T12:22:41.083Z,18.89
2017-05-07T12:23:06.624Z,18.9
2017-05-07T12:23:32.058Z,18.89
2017-05-07T12:23:57.534Z,18.86
2017-05-07T12:24:23.005Z,18.88
2017-05-07T12:24:48.519Z,18.95
2017-05-07T12:25:13.988Z,18.89
2017-05-07T12:25:39.552Z,18.89
2017-05-07T12:26:04.976Z,18.9
2017-05-07T12:26:30.457Z,18.81
2017-05-07T12:26:55.951Z,18.84
2017-05-07T12:27:21.437Z,18.81
2017-05-07T12:27:46.928Z,18.81
2017-05-07T12:28:12.413Z,18.81
2017-05-07T12:28:37.968Z,18.74
2017-05-07T12:29:03.434Z,18.78
2017-05-07T12:29:28.900Z,18.71
2017-05-07T12:29:54.378Z,18.73
2017-05-07T12:30:19.863Z,18.78
2017-05-07T12:30:45.387Z,18.73
2017-05-07T12:31:10.861Z,18.68
2017-05-07T12:31:36.309Z,18.7
2017-05-07T12:32:01.752Z,18.71
2017-05-07T12:32:27.233Z,18.71
2017-05-07T12:32:52.722Z,18.7
2017-05-07T12:33:18.222Z,18.78
2017-05-07T12:33:43.710Z,18.78
2017-05-07T12:34:09.170Z,18.75
2017-05-07T12:34:34.656Z,18.81
2017-05-07T12:35:00.192Z,18.74
2017-05-07T12:35:25.621Z,18.74
2017-05-07T12:35:51.115Z,18.78
2017-05-07T12:36:16.586Z,18.77
2017-05-07T12:36:42.018Z,18.74
2017-05-07T12:37:07.518Z,18.8
2017-05-07T12:37:32.976Z,18.81
2017-05-07T12:37:58.455Z,18.81
2017-05-07T12:38:23.963Z,18.88
2017-05-07T12:38:49.467Z,18.78
2017-05-07T12:39:14.931Z,18.88
2017-05-07T12:39:40.445Z,18.9
2017-05-07T12:40:05.920Z,18.95
2017-05-07T12:40:31.401Z,18.89
2017-05-07T12:40:56.862Z,18.9
2017-05-07T12:41:22.349Z,19.02
2017-05-07T12:41:47.860Z,18.93
2017-05-07T12:42:13.341Z,18.93
2017-05-07T12:42:38.772Z,18.89
2017-05-07T12:43:04.229Z,19.02
2017-05-07T12:43:29.711Z,18.92
2017-05-07T12:43:55.187Z,18.88
2017-05-07T12:44:20.709Z,18.98
2017-05-07T12:44:46.181Z,18.95
2017-05-07T12:45:11.634Z,19.07
2017-05-07T12:45:37.145Z,18.96
2017-05-07T12:46:02.636Z,18.95
2017-05-07T12:46:28.092Z,18.98
2017-05-07T12:46:53.572Z,18.99
2017-05-07T12:47:19.038Z,19.02
2017-05-07T12:47:44.515Z,18.99
2017-05-07T12:48:09.977Z,18.98
2017-05-07T12:48:35.447Z,18.96
2017-05-07T12:49:00.948Z,19.07
2017-05-07T12:49:26.449Z,19.08
2017-05-07T12:49:51.908Z,19
2017-05-07T12:50:17.370Z,18.99
2017-05-07T12:50:42.847Z,19.04
2017-05-07T12:51:08.317Z,19
2017-05-07T12:51:33.856Z,19.02
2017-05-07T12:51:59.295Z,19.04
2017-05-07T12:52:24.783Z,19.07
2017-05-07T12:52:50.273Z,19.07
2017-05-07T12:53:15.744Z,19.11
2017-05-07T12:53:41.217Z,19.02
2017-05-07T12:54:06.699Z,19.09
2017-05-07T12:54:32.194Z,19.09
2017-05-07T12:54:57.687Z,19.09
2017-05-07T12:55:23.176Z,19.02
2017-05-07T12:55:48.720Z,19.14
2017-05-07T12:56:14.147Z,19.16
2017-05-07T12:56:39.756Z,19.15
2017-05-07T12:57:05.246Z,19.12
2017-05-07T12:57:30.720Z,19.14
2017-05-07T12:57:56.204Z,19.19
2017-05-07T12:58:21.646Z,19.18
2017-05-07T12:58:47.192Z,19.19
2017-05-07T12:59:12.632Z,19.16
2017-05-07T12:59:38.104Z,19.3
2017-05-07T13:00:03.564Z,19.29
2017-05-07T13:00:29.067Z,19.22
2017-05-07T13:00:56.043Z,19.34
2017-05-07T13:01:21.548Z,19.39
2017-05-07T13:01:47.028Z,19.29
2017-05-07T13:02:12.507Z,19.31
2017-05-07T13:02:38.021Z,19.27
2017-05-07T13:03:03.481Z,19.36
2017-05-07T13:03:28.958Z,19.34
2017-05-07T13:03:54.421Z,19.26
2017-05-07T13:04:19.886Z,19.27
2017-05-07T13:04:45.367Z,19.3
2017-05-07T13:05:10.817Z,19.36
2017-05-07T13:05:36.315Z,19.37
2017-05-07T13:06:01.749Z,19.4
2017-05-07T13:06:27.223Z,19.41
2017-05-07T13:06:52.730Z,19.39
2017-05-07T13:07:18.171Z,19.37
2017-05-07T13:07:43.653Z,19.39
2017-05-07T13:08:09.156Z,19.4
2017-05-07T13:08:34.611Z,19.36
2017-05-07T13:09:00.122Z,19.37
2017-05-07T13:09:25.588Z,19.44
2017-05-07T13:09:51.157Z,19.44
2017-05-07T13:10:16.583Z,19.48
2017-05-07T13:10:42.084Z,19.49
2017-05-07T13:11:07.593Z,19.47
2017-05-07T13:11:33.027Z,19.48
2017-05-07T13:11:58.513Z,19.54
2017-05-07T13:12:23.994Z,19.52
2017-05-07T13:12:49.425Z,19.55
2017-05-07T13:13:14.902Z,19.54
2017-05-07T13:13:40.388Z,19.45
2017-05-07T13:14:05.840Z,19.55
2017-05-07T13:14:31.295Z,19.54
2017-05-07T13:14:56.790Z,19.51
2017-05-07T13:15:22.236Z,19.59
2017-05-07T13:15:47.700Z,19.56
2017-05-07T13:16:13.211Z,19.58
2017-05-07T13:16:38.693Z,19.58
2017-05-07T13:17:04.195Z,19.58
2017-05-07T13:17:29.682Z,19.58
2017-05-07T13:17:55.153Z,19.73
2017-05-07T13:18:20.618Z,19.73
2017-05-07T13:18:46.092Z,19.71
2017-05-07T13:19:11.618Z,19.76
2017-05-07T13:19:37.071Z,19.73
2017-05-07T13:20:02.564Z,19.74
2017-05-07T13:20:28.033Z,19.71
2017-05-07T13:20:53.476Z,19.74
2017-05-07T13:21:18.973Z,19.71
2017-05-07T13:21:44.444Z,19.76
2017-05-07T13:22:09.924Z,19.77
2017-05-07T13:22:35.833Z,19.84
2017-05-07T13:23:01.572Z,19.81
2017-05-07T13:23:27.051Z,19.77
2017-05-07T13:23:52.579Z,19.82
2017-05-07T13:24:18.029Z,19.85
2017-05-07T13:24:43.499Z,19.86
2017-05-07T13:25:08.963Z,19.89
2017-05-07T13:25:34.485Z,19.89
2017-05-07T13:25:59.998Z,19.91
2017-05-07T13:26:25.431Z,20
2017-05-07T13:26:51.005Z,19.91
2017-05-07T13:27:16.485Z,19.94
2017-05-07T13:27:41.995Z,19.94
2017-05-07T13:28:07.436Z,19.99
2017-05-07T13:28:32.886Z,20.04
2017-05-07T13:28:58.348Z,19.94
2017-05-07T13:29:23.789Z,20.1
2017-05-07T13:29:49.264Z,20.04
2017-05-07T13:30:14.749Z,20.09
2017-05-07T13:30:40.219Z,19.96
2017-05-07T13:31:05.719Z,19.96
2017-05-07T13:31:31.202Z,20.07
2017-05-07T13:31:56.636Z,20.06
2017-05-07T13:32:22.129Z,19.99
2017-05-07T13:32:47.617Z,19.99
2017-05-07T13:33:13.112Z,19.94
2017-05-07T13:33:38.642Z,19.96
2017-05-07T13:34:04.149Z,19.92
2017-05-07T13:34:29.633Z,19.88
2017-05-07T13:34:55.102Z,19.84
2017-05-07T13:35:20.676Z,19.86
2017-05-07T13:35:46.100Z,19.89
2017-05-07T13:36:11.568Z,19.74
2017-05-07T13:36:37.020Z,19.85
2017-05-07T13:37:02.550Z,19.82
2017-05-07T13:37:27.997Z,19.89
2017-05-07T13:37:53.454Z,19.84
2017-05-07T13:38:18.949Z,19.85
2017-05-07T13:38:44.428Z,19.82
2017-05-07T13:39:10.069Z,19.85
2017-05-07T13:39:35.540Z,19.74
2017-05-07T13:40:01.006Z,19.84
2017-05-07T13:40:26.499Z,19.81
2017-05-07T13:40:51.965Z,19.74
2017-05-07T13:41:17.450Z,19.82
2017-05-07T13:41:42.939Z,19.71
2017-05-07T13:42:08.389Z,19.77
2017-05-07T13:42:33.876Z,19.73
2017-05-07T13:42:59.369Z,19.76
2017-05-07T13:43:24.841Z,19.76
2017-05-07T13:43:50.346Z,19.74
2017-05-07T13:44:15.819Z,19.63
2017-05-07T13:44:41.391Z,19.66
2017-05-07T13:45:06.798Z,19.63
2017-05-07T13:45:32.267Z,19.64
2017-05-07T13:45:57.734Z,19.63
2017-05-07T13:46:23.176Z,19.64
2017-05-07T13:46:48.726Z,19.62
2017-05-07T13:47:14.149Z,19.55
2017-05-07T13:47:39.656Z,19.62
2017-05-07T13:48:05.149Z,19.59
2017-05-07T13:48:30.668Z,19.63
2017-05-07T13:48:56.138Z,19.67
2017-05-07T13:49:21.633Z,19.67
2017-05-07T13:49:47.121Z,19.55
2017-05-07T13:50:12.602Z,19.59
2017-05-07T13:50:38.058Z,19.63
2017-05-07T13:51:03.516Z,19.49
2017-05-07T13:51:28.988Z,19.62
2017-05-07T13:51:54.480Z,19.55
2017-05-07T13:52:19.968Z,19.51
2017-05-07T13:52:45.437Z,19.56
2017-05-07T13:53:10.899Z,19.56
2017-05-07T13:53:36.380Z,19.58
2017-05-07T13:54:01.843Z,19.54
2017-05-07T13:54:27.364Z,19.58
2017-05-07T13:54:52.827Z,19.51
2017-05-07T13:55:18.295Z,19.58
2017-05-07T13:55:43.762Z,19.62
2017-05-07T13:56:09.247Z,19.55
2017-05-07T13:56:34.689Z,19.54
2017-05-07T13:57:00.170Z,19.56
2017-05-07T13:57:25.634Z,19.58
2017-05-07T13:57:51.113Z,19.47
2017-05-07T13:58:16.570Z,19.44
2017-05-07T13:58:42.056Z,19.62
2017-05-07T13:59:07.533Z,19.59
2017-05-07T13:59:32.994Z,19.58
2017-05-07T13:59:58.452Z,19.58
2017-05-07T14:00:23.934Z,19.66
2017-05-07T14:00:49.414Z,19.63
2017-05-07T14:01:14.860Z,19.62
2017-05-07T14:01:40.339Z,19.63
2017-05-07T14:02:05.805Z,19.66
2017-05-07T14:02:31.278Z,19.71
2017-05-07T14:02:56.756Z,19.64
2017-05-07T14:03:22.195Z,19.67
2017-05-07T14:03:47.662Z,19.76
2017-05-07T14:04:13.139Z,19.74
2017-05-07T14:04:38.632Z,19.79
2017-05-07T14:05:04.126Z,19.74
2017-05-07T14:05:29.577Z,19.74
2017-05-07T14:05:55.041Z,19.74
2017-05-07T14:06:20.525Z,19.73
2017-05-07T14:06:45.967Z,19.76
2017-05-07T14:07:11.439Z,19.69
2017-05-07T14:07:36.878Z,19.77
2017-05-07T14:08:02.359Z,19.71
2017-05-07T14:08:27.822Z,19.79
2017-05-07T14:08:53.311Z,19.7
2017-05-07T14:09:18.792Z,19.77
2017-05-07T14:09:44.270Z,19.7
2017-05-07T14:10:09.683Z,19.73
2017-05-07T14:10:35.152Z,19.77
2017-05-07T14:11:00.619Z,19.82
2017-05-07T14:11:26.168Z,19.85
2017-05-07T14:11:51.607Z,19.86
2017-05-07T14:12:17.031Z,19.77
2017-05-07T14:12:42.506Z,19.81
2017-05-07T14:13:07.996Z,19.86
2017-05-07T14:13:33.433Z,19.84
2017-05-07T14:13:58.905Z,19.89
2017-05-07T14:14:24.393Z,19.95
2017-05-07T14:14:49.870Z,20
2017-05-07T14:15:15.356Z,19.95
2017-05-07T14:15:40.838Z,19.92
2017-05-07T14:16:06.298Z,20
2017-05-07T14:16:31.783Z,19.95
2017-05-07T14:16:57.327Z,19.92
2017-05-07T14:17:22.934Z,19.95